createdAt,value
2022-08-22T00:00:24.881Z,2.28
2022-08-22T00:02:41.708Z,2.40
2022-08-22T00:02:52.899Z,2.63
2022-08-22T00:02:54.799Z,2.17
2022-08-22T00:03:15.478Z,2.40
2022-08-22T00:06:01.290Z,2.30
2022-08-22T00:08:35.466Z,2.35
2022-08-22T00:11:27.720Z,2.40
2022-08-22T00:14:13.843Z,2.30
2022-08-22T00:16:56.080Z,2.58
2022-08-22T00:19:38.264Z,2.42
2022-08-22T00:22:28.276Z,2.25
2022-08-22T00:25:27.938Z,2.10
2022-08-22T00:28:18.236Z,2.25
2022-08-22T00:31:14.178Z,2.23
2022-08-22T00:33:48.297Z,2.42
2022-08-22T00:36:18.205Z,2.20
2022-08-22T00:38:53.029Z,2.58
2022-08-22T00:41:54.102Z,2.25
2022-08-22T00:45:02.751Z,2.20
2022-08-22T00:47:38.447Z,2.40
2022-08-22T00:50:25.699Z,2.38
2022-08-22T00:53:29.950Z,2.20
2022-08-22T00:56:38.327Z,2.10
2022-08-22T00:59:23.356Z,2.70
2022-08-22T01:02:18.941Z,2.20
2022-08-22T01:05:15.288Z,2.40
2022-08-22T01:08:22.473Z,2.43
2022-08-22T01:11:18.837Z,2.53
2022-08-22T01:14:08.250Z,2.35
2022-08-22T01:16:41.396Z,2.40
2022-08-22T01:19:49.915Z,2.40
2022-08-22T01:22:52.866Z,2.47
2022-08-22T01:25:47.736Z,2.58
2022-08-22T01:28:36.802Z,2.33
2022-08-22T01:31:53.091Z,2.45
2022-08-22T01:34:28.871Z,2.60
2022-08-22T01:37:01.759Z,2.53
2022-08-22T01:39:44.313Z,2.80
2022-08-22T01:42:34.646Z,2.63
2022-08-22T01:45:40.454Z,2.50
2022-08-22T01:48:21.872Z,2.97
2022-08-22T01:50:54.658Z,2.70
2022-08-22T01:53:24.577Z,2.65
2022-08-22T01:56:12.813Z,2.70
2022-08-22T01:59:10.913Z,2.40
2022-08-22T02:01:59.511Z,2.80
2022-08-22T02:05:01.438Z,2.30
2022-08-22T02:07:33.433Z,2.50
2022-08-22T02:10:25.320Z,2.50
2022-08-22T02:13:15.398Z,2.47
2022-08-22T02:16:04.866Z,2.47
2022-08-22T02:18:54.027Z,2.70
2022-08-22T02:21:31.868Z,2.70
2022-08-22T02:24:04.827Z,2.65
2022-08-22T02:27:04.147Z,2.47
2022-08-22T02:29:42.256Z,2.43
2022-08-22T02:32:30.838Z,2.55
2022-08-22T02:35:03.577Z,2.45
2022-08-22T02:37:42.088Z,2.45
2022-08-22T02:40:28.106Z,2.50
2022-08-22T02:43:20.572Z,2.50
2022-08-22T02:46:14.007Z,2.90
2022-08-22T02:49:33.590Z,2.40
2022-08-22T02:52:03.978Z,2.60
2022-08-22T02:54:54.030Z,2.40
2022-08-22T02:57:39.616Z,2.63
2022-08-22T03:00:31.701Z,2.60
2022-08-22T03:03:14.593Z,2.42
2022-08-22T03:05:59.126Z,2.53
2022-08-22T03:08:33.853Z,2.40
2022-08-22T03:11:22.900Z,2.50
2022-08-22T03:14:28.680Z,2.40
2022-08-22T03:17:04.519Z,2.45
2022-08-22T03:19:52.469Z,2.30
2022-08-22T03:22:24.729Z,2.70
2022-08-22T03:24:56.805Z,2.47
2022-08-22T03:27:34.552Z,2.47
2022-08-22T03:30:12.973Z,2.40
2022-08-22T03:32:50.109Z,2.50
2022-08-22T03:35:51.199Z,2.60
2022-08-22T03:38:34.153Z,2.60
2022-08-22T03:41:19.523Z,2.88
2022-08-22T03:44:03.550Z,2.38
2022-08-22T03:46:43.313Z,2.85
2022-08-22T03:49:16.121Z,2.38
2022-08-22T03:51:46.113Z,2.40
2022-08-22T03:54:45.444Z,2.65
2022-08-22T03:57:40.755Z,2.50
2022-08-22T04:00:28.407Z,2.73
2022-08-22T04:03:26.896Z,2.70
2022-08-22T04:06:30.933Z,2.55
2022-08-22T04:09:16.755Z,2.63
2022-08-22T04:12:17.713Z,2.67
2022-08-22T04:15:03.120Z,2.60
2022-08-22T04:18:21.610Z,2.50
2022-08-22T04:20:50.566Z,2.87
2022-08-22T04:23:59.670Z,2.80
2022-08-22T04:26:47.991Z,2.90
2022-08-22T04:29:37.097Z,2.95
2022-08-22T04:32:14.820Z,2.90
2022-08-22T04:34:48.546Z,2.67
2022-08-22T04:37:27.810Z,2.75
2022-08-22T04:40:17.447Z,2.80
2022-08-22T04:42:56.971Z,3.10
2022-08-22T04:45:39.882Z,2.93
2022-08-22T04:48:21.833Z,2.70
2022-08-22T04:51:06.948Z,2.70
2022-08-22T04:53:57.240Z,3.00
2022-08-22T04:56:48.157Z,3.05
2022-08-22T04:59:17.206Z,3.10
2022-08-22T05:01:47.910Z,3.00
2022-08-22T05:04:31.444Z,2.67
2022-08-22T05:07:10.404Z,3.00
2022-08-22T05:09:42.877Z,2.95
2022-08-22T05:12:18.103Z,2.80
2022-08-22T05:14:55.611Z,2.80
2022-08-22T05:17:27.398Z,2.97
2022-08-22T05:20:00.294Z,2.85
2022-08-22T05:22:32.789Z,2.90
2022-08-22T05:25:04.721Z,3.00
2022-08-22T05:27:41.920Z,2.77
2022-08-22T05:30:16.884Z,3.00
2022-08-22T05:33:07.114Z,3.08
2022-08-22T05:35:50.118Z,2.60
2022-08-22T05:38:22.393Z,2.80
2022-08-22T05:41:01.660Z,2.90
2022-08-22T05:43:29.327Z,2.85
2022-08-22T05:45:58.588Z,3.10
2022-08-22T05:48:37.652Z,3.28
2022-08-22T05:51:21.506Z,3.13
2022-08-22T05:53:55.967Z,2.90
2022-08-22T05:56:33.596Z,3.00
2022-08-22T05:59:14.656Z,2.70
2022-08-22T06:02:14.616Z,2.90
2022-08-22T06:04:44.816Z,2.93
2022-08-22T06:07:27.339Z,3.22
2022-08-22T06:10:17.737Z,3.30
2022-08-22T06:13:11.449Z,3.10
2022-08-22T06:16:08.008Z,3.00
2022-08-22T06:18:40.045Z,2.92
2022-08-22T06:21:13.427Z,2.87
2022-08-22T06:23:50.014Z,3.00
2022-08-22T06:26:21.122Z,2.90
2022-08-22T06:28:55.321Z,2.72
2022-08-22T06:31:36.450Z,3.03
2022-08-22T06:34:11.798Z,2.90
2022-08-22T06:36:43.543Z,3.10
2022-08-22T06:39:27.010Z,3.03
2022-08-22T06:42:05.947Z,2.92
2022-08-22T06:44:38.050Z,3.27
2022-08-22T06:47:10.225Z,3.25
2022-08-22T06:49:39.024Z,3.10
2022-08-22T06:52:22.389Z,3.17
2022-08-22T06:54:55.661Z,2.85
2022-08-22T06:57:43.578Z,2.80
2022-08-22T07:00:15.205Z,3.05
2022-08-22T07:02:56.516Z,2.80
2022-08-22T07:05:28.143Z,2.70
2022-08-22T07:07:56.302Z,3.00
2022-08-22T07:10:24.362Z,3.17
2022-08-22T07:12:56.404Z,3.28
2022-08-22T07:15:34.545Z,3.27
2022-08-22T07:18:17.165Z,3.03
2022-08-22T07:20:50.252Z,3.13
2022-08-22T07:23:45.876Z,2.90
2022-08-22T07:26:17.419Z,3.37
2022-08-22T07:28:59.155Z,3.10
2022-08-22T07:31:26.313Z,2.92
2022-08-22T07:34:17.272Z,2.92
2022-08-22T07:36:52.378Z,3.10
2022-08-22T07:39:27.389Z,3.20
2022-08-22T07:42:18.685Z,3.20
2022-08-22T07:45:10.782Z,3.13
2022-08-22T07:47:58.027Z,2.90
2022-08-22T07:50:36.375Z,2.90
2022-08-22T07:53:25.913Z,3.23
2022-08-22T07:55:56.244Z,3.00
2022-08-22T07:58:26.804Z,3.35
2022-08-22T08:00:55.322Z,2.90
2022-08-22T08:03:25.806Z,3.13
2022-08-22T08:05:53.920Z,3.33
2022-08-22T08:08:26.738Z,3.03
2022-08-22T08:10:56.355Z,3.00
2022-08-22T08:13:33.875Z,2.97
2022-08-22T08:16:02.510Z,3.40
2022-08-22T08:18:33.866Z,3.17
2022-08-22T08:21:05.239Z,3.05
2022-08-22T08:23:41.013Z,2.85
2022-08-22T08:26:17.127Z,3.00
2022-08-22T08:28:49.109Z,2.97
2022-08-22T08:31:32.719Z,2.75
2022-08-22T08:34:08.290Z,3.13
2022-08-22T08:36:53.099Z,3.00
2022-08-22T08:39:22.978Z,2.83
2022-08-22T08:42:17.813Z,2.60
2022-08-22T08:45:12.098Z,3.10
2022-08-22T08:48:06.598Z,2.35
2022-08-22T08:51:07.673Z,2.67
2022-08-22T08:53:56.731Z,2.50
2022-08-22T08:56:42.806Z,2.70
2022-08-22T08:59:51.310Z,2.50
2022-08-22T09:02:55.377Z,2.90
2022-08-22T09:05:53.662Z,2.70
2022-08-22T09:08:53.845Z,2.72
2022-08-22T09:11:51.337Z,2.90
2022-08-22T09:14:33.446Z,3.25
2022-08-22T09:17:19.722Z,3.53
2022-08-22T09:19:54.337Z,3.33
2022-08-22T09:22:27.238Z,3.60
2022-08-22T09:25:38.581Z,3.60
2022-08-22T09:28:18.979Z,3.72
2022-08-22T09:31:22.199Z,3.90
2022-08-22T09:34:24.149Z,3.97
2022-08-22T09:37:20.308Z,3.70
2022-08-22T09:43:05.593Z,4.13
2022-08-22T09:45:39.499Z,3.63
2022-08-22T09:48:32.766Z,3.90
2022-08-22T09:51:28.570Z,4.00
2022-08-22T09:54:09.808Z,4.10
2022-08-22T09:56:53.461Z,4.22
2022-08-22T09:59:46.186Z,4.18
2022-08-22T10:02:34.502Z,4.25
2022-08-22T10:05:40.729Z,4.10
2022-08-22T10:08:29.352Z,4.05
2022-08-22T10:11:14.231Z,4.20
2022-08-22T10:14:07.947Z,3.70
2022-08-22T10:17:00.170Z,3.90
2022-08-22T10:19:42.518Z,4.35
2022-08-22T10:22:44.534Z,4.13
2022-08-22T10:25:36.541Z,4.10
2022-08-22T10:28:14.818Z,4.43
2022-08-22T10:31:12.336Z,3.90
2022-08-22T10:33:50.577Z,4.40
2022-08-22T10:36:33.172Z,4.57
2022-08-22T10:39:11.043Z,4.50
2022-08-22T10:42:23.146Z,4.13
2022-08-22T10:45:24.020Z,4.65
2022-08-22T10:48:18.290Z,4.30
2022-08-22T10:50:50.929Z,4.55
2022-08-22T10:53:54.043Z,4.63
2022-08-22T10:56:45.059Z,4.97
2022-08-22T10:59:12.179Z,3.53
2022-08-22T11:02:01.226Z,3.72
2022-08-22T11:04:43.451Z,3.80
2022-08-22T11:07:28.892Z,4.03
2022-08-22T11:10:05.470Z,4.20
2022-08-22T11:12:43.021Z,3.72
2022-08-22T11:15:57.039Z,4.13
2022-08-22T11:18:42.132Z,4.10
2022-08-22T11:21:28.996Z,3.50
2022-08-22T11:24:05.080Z,4.15
2022-08-22T11:26:47.237Z,3.80
2022-08-22T11:29:41.155Z,3.95
2022-08-22T11:32:21.024Z,4.30
2022-08-22T11:35:08.887Z,3.75
2022-08-22T11:37:55.750Z,4.07
2022-08-22T11:40:56.037Z,4.10
2022-08-22T11:43:47.539Z,3.67
2022-08-22T11:46:25.535Z,4.00
2022-08-22T11:49:44.584Z,4.10
2022-08-22T11:52:36.589Z,4.13
2022-08-22T11:55:21.649Z,3.75
2022-08-22T11:58:03.890Z,3.92
2022-08-22T12:00:49.700Z,4.13
2022-08-22T12:03:58.209Z,3.45
2022-08-22T12:06:46.833Z,3.60
2022-08-22T12:09:33.825Z,3.80
2022-08-22T12:12:21.900Z,3.55
2022-08-22T12:14:59.496Z,3.85
2022-08-22T12:18:02.243Z,4.18
2022-08-22T12:20:56.973Z,3.90
2022-08-22T12:23:48.858Z,3.88
2022-08-22T12:26:33.423Z,3.97
2022-08-22T12:29:34.025Z,4.38
2022-08-22T12:32:49.223Z,4.07
2022-08-22T12:35:39.298Z,4.53
2022-08-22T12:38:28.360Z,4.30
2022-08-22T12:41:28.359Z,4.65
2022-08-22T12:44:36.916Z,4.35
2022-08-22T12:47:34.266Z,4.00
2022-08-22T12:50:35.394Z,4.63
2022-08-22T12:53:12.046Z,4.25
2022-08-22T12:55:50.497Z,4.57
2022-08-22T12:58:33.982Z,4.47
2022-08-22T13:01:06.337Z,3.60
2022-08-22T13:03:47.085Z,4.60
2022-08-22T13:06:36.097Z,3.80
2022-08-22T13:09:19.521Z,3.50
2022-08-22T13:11:53.737Z,3.83
2022-08-22T13:14:27.949Z,3.53
2022-08-22T13:16:58.566Z,3.40
2022-08-22T13:19:32.036Z,3.90
2022-08-22T13:22:07.533Z,4.43
2022-08-22T13:24:51.849Z,3.93
2022-08-22T13:27:29.862Z,3.80
2022-08-22T13:30:34.834Z,4.10
2022-08-22T13:33:14.406Z,3.60
2022-08-22T13:35:55.461Z,3.70
2022-08-22T13:38:34.770Z,3.90
2022-08-22T13:41:05.394Z,4.07
2022-08-22T13:43:56.788Z,4.10
2022-08-22T13:46:30.181Z,4.13
2022-08-22T13:49:01.663Z,3.60
2022-08-22T13:51:58.378Z,4.55
2022-08-22T13:54:50.094Z,3.93
2022-08-22T13:57:24.717Z,4.28
2022-08-22T14:00:06.376Z,4.05
2022-08-22T14:02:36.806Z,3.72
2022-08-22T14:05:20.422Z,4.22
2022-08-22T14:08:18.489Z,3.63
2022-08-22T14:10:55.015Z,3.90
2022-08-22T14:13:40.591Z,3.92
2022-08-22T14:16:12.490Z,4.05
2022-08-22T14:18:49.449Z,4.50
2022-08-22T14:21:28.451Z,3.90
2022-08-22T14:24:28.311Z,3.75
2022-08-22T14:27:06.258Z,4.13
2022-08-22T14:29:43.910Z,4.25
2022-08-22T14:32:42.073Z,3.97
2022-08-22T14:35:34.766Z,3.55
2022-08-22T14:38:30.223Z,3.50
2022-08-22T14:41:20.986Z,3.88
2022-08-22T14:43:58.521Z,3.80
2022-08-22T14:46:36.459Z,3.90
2022-08-22T14:49:13.586Z,4.00
2022-08-22T14:51:52.125Z,3.88
2022-08-22T14:54:23.572Z,3.15
2022-08-22T14:56:59.397Z,3.47
2022-08-22T14:59:35.450Z,3.58
2022-08-22T15:02:12.764Z,3.50
2022-08-22T15:04:46.890Z,3.65
2022-08-22T15:07:30.963Z,3.65
2022-08-22T15:10:06.249Z,4.07
2022-08-22T15:12:40.383Z,3.90
2022-08-22T15:15:29.469Z,3.38
2022-08-22T15:17:57.042Z,3.53
2022-08-22T15:20:38.313Z,3.95
2022-08-22T15:23:22.210Z,3.40
2022-08-22T15:26:03.572Z,3.63
2022-08-22T15:28:52.189Z,3.73
2022-08-22T15:31:22.056Z,4.05
2022-08-22T15:33:50.733Z,3.80
2022-08-22T15:36:27.146Z,3.70
2022-08-22T15:39:28.078Z,3.70
2022-08-22T15:41:55.718Z,3.13
2022-08-22T15:44:32.371Z,3.40
2022-08-22T15:47:24.014Z,3.72
2022-08-22T15:49:58.288Z,3.50
2022-08-22T15:52:35.408Z,3.80
2022-08-22T15:55:15.808Z,3.78
2022-08-22T15:57:59.977Z,3.50
2022-08-22T16:00:45.187Z,3.40
2022-08-22T16:03:26.822Z,3.30
2022-08-22T16:06:05.695Z,3.60
2022-08-22T16:08:51.172Z,3.70
2022-08-22T16:11:33.583Z,3.50
2022-08-22T16:14:34.965Z,3.45
2022-08-22T16:17:06.950Z,3.53
2022-08-22T16:19:38.192Z,3.60
2022-08-22T16:22:07.585Z,3.53
2022-08-22T16:24:56.405Z,3.63
2022-08-22T16:27:26.285Z,3.77
2022-08-22T16:30:08.080Z,3.75
2022-08-22T16:32:36.450Z,3.30
2022-08-22T16:35:03.942Z,3.60
2022-08-22T16:37:44.299Z,3.90
2022-08-22T16:40:18.354Z,3.30
2022-08-22T16:43:07.966Z,3.17
2022-08-22T16:45:39.119Z,3.20
2022-08-22T16:48:25.148Z,3.20
2022-08-22T16:51:22.285Z,3.37
2022-08-22T16:54:11.043Z,3.25
2022-08-22T16:56:48.287Z,3.10
2022-08-22T16:59:24.052Z,3.43
2022-08-22T17:02:06.887Z,3.38
2022-08-22T17:04:40.325Z,3.30
2022-08-22T17:07:37.161Z,3.65
2022-08-22T17:10:35.370Z,3.33
2022-08-22T17:13:34.058Z,3.30
2022-08-22T17:16:28.766Z,3.45
2022-08-22T17:19:25.041Z,3.10
2022-08-22T17:21:59.962Z,3.42
2022-08-22T17:24:46.879Z,3.28
2022-08-22T17:27:28.133Z,3.20
2022-08-22T17:30:09.250Z,3.10
2022-08-22T17:32:42.457Z,3.05
2022-08-22T17:35:41.058Z,3.20
2022-08-22T17:38:37.672Z,3.15
2022-08-22T17:41:23.825Z,3.00
2022-08-22T17:44:09.482Z,3.30
2022-08-22T17:47:01.405Z,2.95
2022-08-22T17:49:46.732Z,3.03
2022-08-22T17:52:37.402Z,2.70
2022-08-22T17:55:10.861Z,2.72
2022-08-22T17:57:45.415Z,2.38
2022-08-22T18:00:40.527Z,2.77
2022-08-22T18:03:17.721Z,2.38
2022-08-22T18:06:05.801Z,2.55
2022-08-22T18:11:51.923Z,2.60
2022-08-22T18:14:47.583Z,2.42
2022-08-22T18:17:27.689Z,2.30
2022-08-22T18:20:13.112Z,2.42
2022-08-22T18:22:43.084Z,2.40
2022-08-22T18:25:19.299Z,2.50
2022-08-22T18:27:51.760Z,2.55
2022-08-22T18:30:23.007Z,2.40
2022-08-22T18:32:59.468Z,2.47
2022-08-22T18:36:00.642Z,2.40
2022-08-22T18:38:34.130Z,2.60
2022-08-22T18:41:13.155Z,2.60
2022-08-22T18:43:45.512Z,2.83
2022-08-22T18:46:32.942Z,2.20
2022-08-22T18:49:21.925Z,2.20
2022-08-22T18:52:14.825Z,2.27
2022-08-22T18:55:19.795Z,2.30
2022-08-22T18:57:58.909Z,2.40
2022-08-22T19:00:45.990Z,2.50
2022-08-22T19:03:35.923Z,2.30
2022-08-22T19:06:34.874Z,2.50
2022-08-22T19:09:18.127Z,2.60
2022-08-22T19:12:10.649Z,2.67
2022-08-22T19:15:08.965Z,2.60
2022-08-22T19:17:55.455Z,2.78
2022-08-22T19:20:57.993Z,2.35
2022-08-22T19:23:43.513Z,2.65
2022-08-22T19:26:28.873Z,3.25
2022-08-22T19:29:08.765Z,3.50
2022-08-22T19:31:41.677Z,3.00
2022-08-22T19:34:25.669Z,2.80
2022-08-22T19:37:11.528Z,2.90
2022-08-22T19:40:10.847Z,2.70
2022-08-22T19:42:41.363Z,2.40
2022-08-22T19:45:22.078Z,2.40
2022-08-22T19:48:01.330Z,3.03
2022-08-22T19:50:34.637Z,2.70
2022-08-22T19:53:37.408Z,2.80
2022-08-22T19:56:32.570Z,2.67
2022-08-22T19:59:15.205Z,2.70
2022-08-22T20:02:18.300Z,2.67
2022-08-22T20:05:12.689Z,2.40
2022-08-22T20:08:18.329Z,2.73
2022-08-22T20:11:05.346Z,2.67
2022-08-22T20:13:34.681Z,2.60
2022-08-22T20:16:10.687Z,2.58
2022-08-22T20:19:00.145Z,2.65
2022-08-22T20:21:47.645Z,2.80
2022-08-22T20:24:27.701Z,2.53
2022-08-22T20:27:13.497Z,2.38
2022-08-22T20:29:51.146Z,2.80
2022-08-22T20:32:22.970Z,2.80
2022-08-22T20:34:55.206Z,2.58
2022-08-22T20:38:03.252Z,2.80
2022-08-22T20:40:54.671Z,2.78
2022-08-22T20:43:41.824Z,2.80
2022-08-22T20:46:18.922Z,2.60
2022-08-22T20:48:48.283Z,2.40
2022-08-22T20:51:19.445Z,2.50
2022-08-22T20:54:16.330Z,2.60
2022-08-22T20:56:53.905Z,2.38
2022-08-22T20:59:29.802Z,2.30
2022-08-22T21:02:41.010Z,2.70
2022-08-22T21:05:24.120Z,2.22
2022-08-22T21:08:10.711Z,2.67
2022-08-22T21:10:58.195Z,2.55
2022-08-22T21:13:29.532Z,2.42
2022-08-22T21:16:31.695Z,2.72
2022-08-22T21:19:03.368Z,2.30
2022-08-22T21:21:33.504Z,2.72
2022-08-22T21:24:01.822Z,2.50
2022-08-22T21:26:36.379Z,2.70
2022-08-22T21:29:12.319Z,2.77
2022-08-22T21:31:52.783Z,2.42
2022-08-22T21:34:25.236Z,2.80
2022-08-22T21:37:00.870Z,2.80
2022-08-22T21:39:36.065Z,2.60
2022-08-22T21:42:03.216Z,2.60
2022-08-22T21:44:40.197Z,2.92
2022-08-22T21:47:30.760Z,2.80
2022-08-22T21:50:18.788Z,2.45
2022-08-22T21:52:54.906Z,2.50
2022-08-22T21:55:25.370Z,2.55
2022-08-22T21:58:36.189Z,2.78
2022-08-22T22:01:25.031Z,2.40
2022-08-22T22:03:55.412Z,2.70
2022-08-22T22:06:22.587Z,2.75
2022-08-22T22:08:49.739Z,2.60
2022-08-22T22:11:17.576Z,2.90
2022-08-22T22:13:45.513Z,2.80
2022-08-22T22:16:13.057Z,2.63
2022-08-22T22:18:40.875Z,2.70
2022-08-22T22:21:08.717Z,3.10
2022-08-22T22:23:36.017Z,2.80
2022-08-22T22:26:05.216Z,2.72
2022-08-22T22:28:41.317Z,2.65
2022-08-22T22:31:09.609Z,2.60
2022-08-22T22:33:39.990Z,2.80
2022-08-22T22:36:13.156Z,2.85
2022-08-22T22:38:41.011Z,2.73
2022-08-22T22:41:08.474Z,2.97
2022-08-22T22:43:36.605Z,2.88
2022-08-22T22:46:04.112Z,3.13
2022-08-22T22:48:32.576Z,2.90
2022-08-22T22:51:05.772Z,2.70
2022-08-22T22:53:38.406Z,2.80
2022-08-22T22:56:09.864Z,2.95
2022-08-22T22:58:39.561Z,2.90
2022-08-22T23:01:16.680Z,3.30
2022-08-22T23:03:44.891Z,3.03
2022-08-22T23:06:14.956Z,3.30
2022-08-22T23:08:42.566Z,3.40
2022-08-22T23:11:14.580Z,2.90
2022-08-22T23:13:43.285Z,3.60
2022-08-22T23:16:15.399Z,3.40
2022-08-22T23:18:43.458Z,3.58
2022-08-22T23:21:24.038Z,3.53
2022-08-22T23:23:53.393Z,3.30
2022-08-22T23:26:20.538Z,3.42
2022-08-22T23:28:47.742Z,3.20
2022-08-22T23:31:33.621Z,3.42
2022-08-22T23:34:04.775Z,3.30
2022-08-22T23:36:32.836Z,3.55
2022-08-22T23:39:00.118Z,3.72
2022-08-22T23:41:27.484Z,3.88
2022-08-22T23:43:55.351Z,3.72
2022-08-22T23:46:24.841Z,3.80
2022-08-22T23:48:52.703Z,3.88
2022-08-22T23:51:23.207Z,3.93
2022-08-22T23:53:52.516Z,3.80
2022-08-22T23:56:35.285Z,3.78
2022-08-22T23:59:05.771Z,3.63
